createdAt,value
2019-03-21T00:00:35.294Z,3.82
2019-03-21T00:04:41.833Z,3.76
2019-03-21T00:08:47.744Z,3.63
2019-03-21T00:12:53.594Z,3.62
2019-03-21T00:16:58.492Z,3.71
2019-03-21T00:21:03.389Z,3.79
2019-03-21T00:25:14.036Z,3.64
2019-03-21T00:29:19.906Z,3.42
2019-03-21T00:33:24.785Z,3.34
2019-03-21T00:37:30.752Z,3.37
2019-03-21T00:41:35.656Z,3.41
2019-03-21T00:45:40.549Z,3.30
2019-03-21T00:49:45.454Z,3.33
2019-03-21T00:53:50.335Z,3.38
2019-03-21T00:57:58.507Z,3.29
2019-03-21T01:02:02.901Z,3.30
2019-03-21T01:06:07.801Z,3.37
2019-03-21T01:10:18.528Z,3.22
2019-03-21T01:14:29.856Z,3.01
2019-03-21T01:18:30.007Z,2.86
2019-03-21T01:22:34.916Z,2.96
2019-03-21T01:26:39.806Z,3.12
2019-03-21T01:30:44.702Z,3.22
2019-03-21T01:34:49.584Z,3.29
2019-03-21T01:38:54.474Z,3.33
2019-03-21T01:42:59.363Z,3.38
2019-03-21T01:47:04.252Z,3.32
2019-03-21T01:51:09.715Z,3.17
2019-03-21T01:55:14.588Z,3.10
2019-03-21T01:59:19.476Z,3.08
2019-03-21T02:03:24.368Z,2.97
2019-03-21T02:07:29.263Z,2.95
2019-03-21T02:11:34.164Z,2.98
2019-03-21T02:15:40.823Z,3.05
2019-03-21T02:19:45.645Z,2.99
2019-03-21T02:23:50.539Z,2.67
2019-03-21T02:27:55.867Z,2.49
2019-03-21T02:32:00.762Z,2.51
2019-03-21T02:36:08.683Z,2.63
2019-03-21T02:40:16.710Z,2.66
2019-03-21T02:44:21.596Z,2.67
2019-03-21T02:48:26.500Z,2.77
2019-03-21T02:52:31.382Z,2.78
2019-03-21T02:56:36.265Z,2.55
2019-03-21T03:00:42.502Z,2.49
2019-03-21T03:04:47.399Z,2.55
2019-03-21T03:08:52.284Z,2.57
2019-03-21T03:12:57.181Z,2.62
2019-03-21T03:17:02.061Z,2.49
2019-03-21T03:21:06.972Z,2.32
2019-03-21T03:25:14.944Z,2.28
2019-03-21T03:29:19.826Z,2.33
2019-03-21T03:33:24.720Z,2.43
2019-03-21T03:37:29.610Z,2.48
2019-03-21T03:41:34.497Z,2.38
2019-03-21T03:45:41.427Z,2.28
2019-03-21T03:49:47.317Z,2.23
2019-03-21T03:53:52.205Z,2.19
2019-03-21T03:58:06.005Z,1.94
2019-03-21T04:02:10.883Z,1.82
2019-03-21T04:06:15.778Z,1.95
2019-03-21T04:10:50.449Z,2.04
2019-03-21T04:14:55.339Z,2.12
2019-03-21T04:19:00.241Z,1.99
2019-03-21T04:23:05.488Z,1.90
2019-03-21T04:27:10.373Z,1.91
2019-03-21T04:31:15.337Z,1.94
2019-03-21T04:35:20.229Z,2.00
2019-03-21T04:39:25.123Z,1.83
2019-03-21T04:43:30.006Z,1.75
2019-03-21T04:47:34.892Z,1.81
2019-03-21T04:51:41.060Z,1.94
2019-03-21T04:55:45.951Z,1.87
2019-03-21T04:59:50.838Z,1.95
2019-03-21T05:03:55.723Z,2.01
2019-03-21T05:08:00.598Z,1.96
2019-03-21T05:12:05.486Z,1.96
2019-03-21T05:16:14.622Z,1.98
2019-03-21T05:20:22.652Z,1.94
2019-03-21T05:24:27.543Z,1.99
2019-03-21T05:28:32.437Z,2.03
2019-03-21T05:32:37.318Z,1.81
2019-03-21T05:36:42.214Z,1.75
2019-03-21T05:40:47.106Z,1.90
2019-03-21T05:44:52.002Z,1.96
2019-03-21T05:48:56.895Z,1.99
2019-03-21T05:53:01.776Z,2.09
2019-03-21T05:57:06.662Z,2.23
2019-03-21T06:01:12.399Z,2.32
2019-03-21T06:05:17.320Z,2.45
2019-03-21T06:09:22.925Z,2.66
2019-03-21T06:13:27.808Z,2.75
2019-03-21T06:17:33.684Z,2.81
2019-03-21T06:21:47.316Z,3.05
2019-03-21T06:26:13.390Z,3.18
2019-03-21T06:30:18.336Z,3.36
2019-03-21T06:34:23.180Z,3.50
2019-03-21T06:38:28.072Z,3.58
2019-03-21T06:42:32.969Z,3.62
2019-03-21T06:46:48.571Z,3.74
2019-03-21T06:50:44.461Z,3.74
2019-03-21T06:54:49.369Z,3.71
2019-03-21T06:58:54.244Z,3.75
2019-03-21T07:02:59.157Z,4.02
2019-03-21T07:07:08.371Z,4.25
2019-03-21T07:11:10.649Z,4.50
2019-03-21T07:15:15.627Z,4.77
2019-03-21T07:19:20.510Z,4.92
2019-03-21T07:23:25.416Z,5.03
2019-03-21T07:27:30.319Z,5.17
2019-03-21T07:31:35.237Z,5.33
2019-03-21T07:35:40.145Z,5.44
2019-03-21T07:39:45.028Z,5.61
2019-03-21T07:43:49.937Z,5.75
2019-03-21T07:47:54.833Z,5.95
2019-03-21T07:51:59.745Z,6.14
2019-03-21T07:56:04.722Z,6.32
2019-03-21T08:00:19.448Z,6.50
2019-03-21T08:04:24.349Z,6.76
2019-03-21T08:08:29.251Z,6.94
2019-03-21T08:12:34.162Z,7.18
2019-03-21T08:16:39.063Z,7.40
2019-03-21T08:20:55.588Z,7.62
2019-03-21T08:24:50.553Z,7.88
2019-03-21T08:28:55.487Z,8.14
2019-03-21T08:33:02.932Z,8.46
2019-03-21T08:37:06.964Z,8.79
2019-03-21T08:41:11.842Z,9.19
2019-03-21T08:45:16.747Z,9.45
2019-03-21T08:49:21.716Z,9.62
2019-03-21T08:53:26.622Z,9.80
2019-03-21T08:57:32.362Z,9.97
2019-03-21T09:01:37.250Z,10.12
2019-03-21T09:05:42.155Z,10.28
2019-03-21T09:09:47.057Z,10.41
2019-03-21T09:13:51.967Z,10.55
2019-03-21T09:17:56.863Z,10.65
2019-03-21T09:22:01.748Z,10.81
2019-03-21T09:26:06.644Z,10.90
2019-03-21T09:30:13.687Z,11.03
2019-03-21T09:34:18.582Z,11.12
2019-03-21T09:38:23.476Z,11.20
2019-03-21T09:42:28.360Z,11.36
2019-03-21T09:46:33.270Z,11.51
2019-03-21T09:50:38.173Z,11.67
2019-03-21T09:54:43.079Z,11.87
2019-03-21T09:58:47.988Z,12.04
2019-03-21T10:02:52.880Z,12.18
2019-03-21T10:06:57.782Z,12.35
2019-03-21T10:11:02.698Z,12.48
2019-03-21T10:15:07.662Z,12.60
2019-03-21T10:19:12.566Z,12.65
2019-03-21T10:23:18.540Z,12.76
2019-03-21T10:27:24.516Z,12.91
2019-03-21T10:31:29.412Z,12.97
2019-03-21T10:35:34.332Z,13.05
2019-03-21T10:39:39.228Z,13.13
2019-03-21T10:43:44.128Z,13.26
2019-03-21T10:47:49.031Z,13.35
2019-03-21T10:51:55.189Z,13.38
2019-03-21T10:56:00.312Z,13.44
2019-03-21T11:00:08.468Z,13.49
2019-03-21T11:04:14.345Z,13.40
2019-03-21T11:08:19.229Z,13.50
2019-03-21T11:12:24.133Z,13.61
2019-03-21T11:16:31.434Z,13.77
2019-03-21T11:20:37.381Z,13.80
2019-03-21T11:24:43.863Z,13.78
2019-03-21T11:28:48.749Z,13.90
2019-03-21T11:32:53.653Z,13.99
2019-03-21T11:36:58.561Z,14.06
2019-03-21T11:41:03.464Z,14.08
2019-03-21T11:45:08.614Z,14.02
2019-03-21T11:49:13.539Z,14.11
2019-03-21T11:53:18.454Z,14.16
2019-03-21T11:57:23.344Z,14.04
2019-03-21T12:01:28.240Z,14.05
2019-03-21T12:05:33.149Z,14.19
2019-03-21T12:09:38.040Z,14.36
2019-03-21T12:13:42.942Z,14.47
2019-03-21T12:17:47.858Z,14.60
2019-03-21T12:21:52.761Z,14.71
2019-03-21T12:25:57.670Z,14.70
2019-03-21T12:30:02.568Z,14.87
2019-03-21T12:34:07.539Z,14.87
2019-03-21T12:38:12.528Z,15.02
2019-03-21T12:42:17.430Z,15.02
2019-03-21T12:46:22.339Z,15.21
2019-03-21T12:50:27.237Z,15.30
2019-03-21T12:54:32.130Z,15.37
2019-03-21T12:58:37.037Z,15.43
2019-03-21T13:02:43.143Z,15.52
2019-03-21T13:06:48.224Z,15.61
2019-03-21T13:10:53.120Z,15.74
2019-03-21T13:14:58.018Z,15.84
2019-03-21T13:19:02.917Z,15.90
2019-03-21T13:23:07.893Z,15.98
2019-03-21T13:27:12.793Z,16.01
2019-03-21T13:31:17.693Z,16.17
2019-03-21T13:35:32.044Z,16.28
2019-03-21T13:39:29.189Z,16.34
2019-03-21T13:43:34.096Z,16.23
2019-03-21T13:47:39.002Z,16.31
2019-03-21T13:51:43.895Z,16.37
2019-03-21T13:55:48.797Z,16.41
2019-03-21T13:59:53.695Z,16.43
2019-03-21T14:03:58.598Z,16.46
2019-03-21T14:08:03.520Z,16.49
2019-03-21T14:12:08.418Z,16.57
2019-03-21T14:16:13.320Z,16.59
2019-03-21T14:20:18.199Z,16.60
2019-03-21T14:24:23.172Z,16.45
2019-03-21T14:28:28.076Z,16.24
2019-03-21T14:32:32.988Z,16.19
2019-03-21T14:36:37.887Z,15.96
2019-03-21T14:40:42.769Z,15.92
2019-03-21T14:44:47.672Z,15.92
2019-03-21T14:48:52.563Z,15.93
2019-03-21T14:52:57.462Z,15.92
2019-03-21T14:57:02.366Z,15.87
2019-03-21T15:01:07.253Z,15.90
2019-03-21T15:05:12.488Z,15.84
2019-03-21T15:09:17.395Z,15.81
2019-03-21T15:13:22.335Z,15.76
2019-03-21T15:17:27.200Z,15.63
2019-03-21T15:21:32.088Z,15.69
2019-03-21T15:25:37.036Z,15.78
2019-03-21T15:29:41.960Z,15.75
2019-03-21T15:33:46.860Z,15.77
2019-03-21T15:37:51.763Z,15.78
2019-03-21T15:41:56.665Z,15.79
2019-03-21T15:46:01.565Z,15.76
2019-03-21T15:50:10.072Z,15.68
2019-03-21T15:54:14.992Z,15.61
2019-03-21T15:58:19.887Z,15.56
2019-03-21T16:02:24.787Z,15.43
2019-03-21T16:06:29.693Z,15.37
2019-03-21T16:10:34.578Z,15.19
2019-03-21T16:14:39.482Z,15.19
2019-03-21T16:18:44.387Z,15.12
2019-03-21T16:22:49.323Z,15.06
2019-03-21T16:26:54.228Z,15.04
2019-03-21T16:30:59.183Z,15.01
2019-03-21T16:35:05.733Z,14.93
2019-03-21T16:39:10.640Z,14.89
2019-03-21T16:43:15.544Z,14.95
2019-03-21T16:47:20.456Z,14.90
2019-03-21T16:51:25.347Z,14.88
2019-03-21T16:55:30.254Z,14.71
2019-03-21T16:59:35.151Z,14.71
2019-03-21T17:03:40.054Z,14.51
2019-03-21T17:07:44.957Z,14.41
2019-03-21T17:11:50.918Z,14.41
2019-03-21T17:15:55.861Z,14.34
2019-03-21T17:20:03.537Z,14.24
2019-03-21T17:24:07.633Z,14.11
2019-03-21T17:28:12.521Z,13.98
2019-03-21T17:32:17.654Z,13.85
2019-03-21T17:36:22.500Z,13.68
2019-03-21T17:40:27.409Z,13.50
2019-03-21T17:44:32.310Z,13.26
2019-03-21T17:48:37.207Z,13.09
2019-03-21T17:52:42.116Z,12.79
2019-03-21T17:56:47.001Z,12.52
2019-03-21T18:00:51.902Z,12.37
2019-03-21T18:04:56.874Z,12.34
2019-03-21T18:09:01.771Z,12.25
2019-03-21T18:13:07.746Z,12.11
2019-03-21T18:17:12.660Z,11.90
2019-03-21T18:21:17.549Z,11.72
2019-03-21T18:25:22.455Z,11.52
2019-03-21T18:29:27.350Z,11.25
2019-03-21T18:33:32.249Z,11.01
2019-03-21T18:37:37.153Z,10.85
2019-03-21T18:41:42.041Z,10.77
2019-03-21T18:45:46.945Z,10.51
2019-03-21T18:49:51.838Z,10.31
2019-03-21T18:53:56.753Z,10.21
2019-03-21T18:58:01.649Z,10.14
2019-03-21T19:02:06.541Z,10.27
2019-03-21T19:06:11.442Z,10.25
2019-03-21T19:10:17.082Z,10.22
2019-03-21T19:14:21.981Z,10.27
2019-03-21T19:18:26.877Z,10.21
2019-03-21T19:22:31.839Z,10.00
2019-03-21T19:26:36.727Z,9.79
2019-03-21T19:30:41.623Z,9.58
2019-03-21T19:34:46.516Z,9.32
2019-03-21T19:38:51.409Z,9.12
2019-03-21T19:42:56.298Z,8.91
2019-03-21T19:47:01.548Z,8.73
2019-03-21T19:51:06.454Z,8.62
2019-03-21T19:55:12.475Z,8.54
2019-03-21T19:59:17.383Z,8.42
2019-03-21T20:03:23.242Z,8.41
2019-03-21T20:07:28.129Z,8.45
2019-03-21T20:11:33.029Z,8.47
2019-03-21T20:15:37.919Z,8.30
2019-03-21T20:19:43.883Z,8.20
2019-03-21T20:23:48.786Z,8.11
2019-03-21T20:27:53.667Z,7.97
2019-03-21T20:31:58.561Z,7.84
2019-03-21T20:36:03.457Z,7.74
2019-03-21T20:40:11.329Z,7.64
2019-03-21T20:44:16.219Z,7.53
2019-03-21T20:48:27.649Z,7.42
2019-03-21T20:52:32.531Z,7.45
2019-03-21T20:56:37.424Z,7.48
2019-03-21T21:00:42.309Z,7.36
2019-03-21T21:04:47.196Z,7.21
2019-03-21T21:08:52.085Z,7.20
2019-03-21T21:12:56.962Z,7.23
2019-03-21T21:17:01.860Z,7.19
2019-03-21T21:21:06.759Z,7.12
2019-03-21T21:25:11.783Z,7.15
2019-03-21T21:29:16.681Z,7.06
2019-03-21T21:33:21.586Z,7.06
2019-03-21T21:37:26.468Z,6.88
2019-03-21T21:41:31.368Z,6.68
2019-03-21T21:45:36.267Z,6.67
2019-03-21T21:49:41.237Z,6.73
2019-03-21T21:53:46.120Z,6.75
2019-03-21T21:57:51.060Z,6.60
2019-03-21T22:01:55.950Z,6.49
2019-03-21T22:06:00.850Z,6.53
2019-03-21T22:10:07.684Z,6.54
2019-03-21T22:14:12.587Z,6.52
2019-03-21T22:18:17.463Z,6.60
2019-03-21T22:22:22.356Z,6.60
2019-03-21T22:26:29.823Z,6.50
2019-03-21T22:30:34.889Z,6.30
2019-03-21T22:34:39.775Z,6.22
2019-03-21T22:38:44.677Z,6.22
2019-03-21T22:42:49.560Z,6.30
2019-03-21T22:46:54.458Z,6.22
2019-03-21T22:50:59.343Z,6.03
2019-03-21T22:55:05.674Z,6.02
2019-03-21T22:59:10.581Z,6.03
2019-03-21T23:03:15.539Z,5.90
2019-03-21T23:07:20.430Z,5.91
2019-03-21T23:11:25.320Z,5.85
2019-03-21T23:15:30.218Z,5.76
2019-03-21T23:19:35.112Z,5.68
2019-03-21T23:23:40.001Z,5.66
2019-03-21T23:27:45.233Z,5.66
2019-03-21T23:31:50.192Z,5.64
2019-03-21T23:35:55.248Z,5.52
2019-03-21T23:40:00.142Z,5.48
2019-03-21T23:44:05.023Z,5.50
2019-03-21T23:48:10.879Z,5.51
2019-03-21T23:52:15.790Z,5.52
2019-03-21T23:56:20.679Z,5.36
